Time;durP1;ratioP1;P1;durP2;ratioP2;P2;SDS_P1;SDS_P2;PMS_P1;PMS_P2;Temp;Humidity;BMP_temperature;BMP_pressure;BME280_temperature;BME280_humidity;BME280_pressure;Samples;Min_cycle;Max_cycle;Signal;HPM_P1;HPM_P2
2020/12/19 00:00:09;;;;;;;;;;;;;;;3.25;87.23;100956.59;5038880;28;19964;-69
2020/12/19 00:02:36;;;;;;;;;;;;;;;3.30;87.14;100959.69;5000334;28;20019;-70
2020/12/19 00:05:02;;;;;;;;;;;;;;;3.41;87.38;100955.94;5023410;28;19926;-70
2020/12/19 00:07:29;;;;;;;;;;;;;;;3.38;86.74;100959.78;5030121;28;19979;-71
2020/12/19 00:09:55;;;;;;;;;;;;;;;3.39;86.21;100963.34;5025426;28;19933;-70
2020/12/19 00:12:22;;;;;;;;;;;;;;;3.32;86.19;100960.38;5035992;28;19925;-70
2020/12/19 00:14:49;;;;;;;;;;;;;;;3.28;86.96;100957.16;5015928;28;19971;-70
2020/12/19 00:17:16;;;;;;;;;;;;;;;3.27;87.16;100955.44;5032205;28;20379;-70
2020/12/19 00:19:42;;;;;;;;;;;;;;;3.31;86.51;100951.47;5033269;28;20352;-70
2020/12/19 00:22:08;;;;;;;;;;;;;;;3.30;86.42;100955.16;5016168;28;19925;-70
2020/12/19 00:24:35;;;;;;;;;;;;;;;3.28;86.96;100951.75;5031712;28;19948;-70
2020/12/19 00:27:09;;;;;;;;;;;;;;;3.23;86.67;100953.19;5031263;28;20067;-70
2020/12/19 00:29:36;;;;;;;;;;;;;;;3.15;86.79;100959.34;5031482;28;19932;-69
2020/12/19 00:32:02;;;;;;;;;;;;;;;3.16;86.99;100947.56;5047585;28;19971;-70
2020/12/19 00:34:29;;;;;;;;;;;;;;;3.16;86.92;100946.72;5031410;28;19931;-70
2020/12/19 00:36:55;;;;;;;;;;;;;;;3.13;87.03;100953.25;4997183;28;20395;-70
2020/12/19 00:39:22;;;;;;;;;;;;;;;3.13;86.93;100941.63;5032264;28;19925;-70
2020/12/19 00:41:48;;;;;;;;;;;;;;;3.03;86.81;100937.16;5030805;28;19929;-70
2020/12/19 00:44:15;;;;;;;;;;;;;;;3.00;87.28;100937.47;5031286;28;20414;-70
2020/12/19 00:46:51;;;;;;;;;;;;;;;2.94;87.21;100931.81;5042114;28;19925;-70
2020/12/19 00:49:17;;;;;;;;;;;;;;;2.86;87.42;100931.72;5031442;28;20437;-70
2020/12/19 00:51:44;;;;;;;;;;;;;;;2.74;87.87;100930.22;5031269;28;19947;-70
2020/12/19 00:54:10;;;;;;;;;;;;;;;2.88;88.03;100932.41;4999071;28;20475;-70
2020/12/19 00:56:36;;;;;;;;;;;;;;;2.91;88.23;100937.50;5030807;28;19971;-70
2020/12/19 00:59:03;;;;;;;;;;;;;;;2.87;87.56;100920.78;5030881;28;19929;-70
2020/12/19 01:01:29;;;;;;;;;;;;;;;2.68;87.88;100921.75;5015805;28;19925;-70
2020/12/19 01:03:56;;;;;;;;;;;;;;;2.65;88.08;100913.97;5031545;28;20470;-70
2020/12/19 01:06:23;;;;;;;;;;;;;;;2.47;88.25;100922.94;5031597;28;20023;-69
2020/12/19 01:08:51;;;;;;;;;;;;;;;2.51;89.13;100924.34;5030399;28;19940;-70
2020/12/19 01:11:30;;;;;;;;;;;;;;;2.43;89.03;100919.69;5032300;28;19933;-70
2020/12/19 01:13:57;;;;;;;;;;;;;;;2.57;89.26;100924.59;5031627;28;19961;-70
2020/12/19 01:16:24;;;;;;;;;;;;;;;2.56;88.77;100917.53;5031274;28;20395;-70
2020/12/19 01:18:51;;;;;;;;;;;;;;;2.71;88.55;100920.59;5015019;28;19929;-70
2020/12/19 01:21:20;;;;;;;;;;;;;;;2.82;88.14;100920.38;5031376;28;19957;-70
2020/12/19 01:23:47;;;;;;;;;;;;;;;2.77;87.66;100913.78;5014766;28;19925;-70
2020/12/19 01:26:14;;;;;;;;;;;;;;;2.90;87.77;100915.13;5031785;28;20526;-70
2020/12/19 01:28:40;;;;;;;;;;;;;;;3.17;87.13;100916.94;5015611;28;19926;-70
2020/12/19 01:31:07;;;;;;;;;;;;;;;3.38;85.92;100914.00;5030647;28;20406;-70
2020/12/19 01:33:34;;;;;;;;;;;;;;;3.41;85.61;100915.53;5032514;28;20043;-70
2020/12/19 01:36:00;;;;;;;;;;;;;;;3.40;85.07;100912.00;4998806;28;20103;-70
2020/12/19 01:38:26;;;;;;;;;;;;;;;3.47;84.72;100902.28;5029085;28;19972;-70
2020/12/19 01:40:54;;;;;;;;;;;;;;;3.46;85.07;100897.91;5019241;28;19967;-70
2020/12/19 01:43:20;;;;;;;;;;;;;;;3.43;84.72;100900.06;5034335;28;19995;-70
2020/12/19 01:45:46;;;;;;;;;;;;;;;3.47;84.92;100893.34;5017948;28;19936;-70
2020/12/19 01:48:20;;;;;;;;;;;;;;;3.48;84.52;100885.13;5018067;28;19925;-70
2020/12/19 01:50:47;;;;;;;;;;;;;;;3.55;84.70;100888.03;5002967;28;19979;-70
2020/12/19 01:53:16;;;;;;;;;;;;;;;3.60;84.07;100885.75;5038770;28;19944;-70
2020/12/19 01:55:43;;;;;;;;;;;;;;;3.55;84.18;100888.03;5022992;28;19928;-70
2020/12/19 01:58:09;;;;;;;;;;;;;;;3.53;83.96;100881.97;5034387;28;19944;-70
2020/12/19 02:00:42;;;;;;;;;;;;;;;3.44;84.25;100877.50;5035827;28;19929;-70
2020/12/19 02:03:14;;;;;;;;;;;;;;;3.42;84.95;100871.44;5043453;28;19954;-70
2020/12/19 02:05:46;;;;;;;;;;;;;;;3.44;84.93;100872.13;5068234;28;19988;-70
2020/12/19 02:08:12;;;;;;;;;;;;;;;3.41;84.83;100867.03;5035671;28;19956;-69
2020/12/19 02:10:39;;;;;;;;;;;;;;;3.14;85.04;100863.38;5017496;28;20414;-70
2020/12/19 02:13:05;;;;;;;;;;;;;;;3.15;86.00;100853.47;4988050;28;19926;-70
2020/12/19 02:16:23;;;;;;;;;;;;;;;3.15;85.66;100848.94;5113503;27;1430554;-69
2020/12/19 02:18:49;;;;;;;;;;;;;;;3.18;85.38;100843.25;5136737;27;20384;-69
2020/12/19 02:21:16;;;;;;;;;;;;;;;3.18;85.96;100848.63;5107555;28;19946;-69
2020/12/19 02:23:43;;;;;;;;;;;;;;;3.22;85.85;100854.56;5094004;28;20408;-68
2020/12/19 02:26:09;;;;;;;;;;;;;;;3.18;86.15;100837.00;5095064;28;19950;-70
2020/12/19 02:28:35;;;;;;;;;;;;;;;3.26;85.90;100837.94;5105339;28;19924;-69
2020/12/19 02:31:01;;;;;;;;;;;;;;;3.25;85.24;100833.56;5100035;28;19924;-71
2020/12/19 02:33:28;;;;;;;;;;;;;;;3.14;85.39;100831.06;5100583;28;19930;-69
2020/12/19 02:36:07;;;;;;;;;;;;;;;3.01;85.82;100819.84;5112648;28;20285;-69
2020/12/19 02:38:33;;;;;;;;;;;;;;;2.82;86.69;100830.72;5099759;28;19967;-68
2020/12/19 02:40:59;;;;;;;;;;;;;;;2.87;86.97;100820.38;5098082;28;19930;-69
2020/12/19 02:43:25;;;;;;;;;;;;;;;2.80;87.25;100822.81;5114742;28;20278;-68
2020/12/19 02:45:52;;;;;;;;;;;;;;;2.76;87.21;100818.75;5112318;28;20014;-69
2020/12/19 02:48:18;;;;;;;;;;;;;;;2.71;87.24;100822.88;5096356;28;19927;-69
2020/12/19 02:50:44;;;;;;;;;;;;;;;2.67;87.33;100822.34;5096707;28;19936;-69
2020/12/19 02:53:10;;;;;;;;;;;;;;;2.63;87.93;100815.56;5114649;28;20389;-69
2020/12/19 02:55:38;;;;;;;;;;;;;;;2.63;87.12;100813.72;5131919;28;19923;-69
2020/12/19 02:58:04;;;;;;;;;;;;;;;2.65;87.96;100817.09;5131517;27;20355;-68
2020/12/19 03:00:30;;;;;;;;;;;;;;;2.74;87.27;100818.06;5129233;27;19930;-69
2020/12/19 03:02:56;;;;;;;;;;;;;;;2.71;87.05;100814.81;5094153;28;19924;-68
2020/12/19 03:05:23;;;;;;;;;;;;;;;2.77;87.04;100816.91;5079110;28;19923;-68
2020/12/19 03:07:49;;;;;;;;;;;;;;;2.81;86.10;100823.66;5140780;28;19949;-68
2020/12/19 03:10:16;;;;;;;;;;;;;;;2.76;86.36;100826.81;5112021;28;19951;-68
2020/12/19 03:12:42;;;;;;;;;;;;;;;2.69;86.45;100823.88;5094103;28;19946;-68
2020/12/19 03:15:08;;;;;;;;;;;;;;;2.73;86.74;100820.91;5110712;28;20018;-69
2020/12/19 03:17:34;;;;;;;;;;;;;;;2.71;85.98;100818.34;5093346;28;19978;-68
2020/12/19 03:20:01;;;;;;;;;;;;;;;2.62;86.71;100814.72;5093429;28;19924;-68
2020/12/19 03:22:27;;;;;;;;;;;;;;;2.45;87.22;100828.94;5093285;28;20022;-69
2020/12/19 03:24:53;;;;;;;;;;;;;;;2.66;86.24;100820.63;5093772;28;19923;-69
2020/12/19 03:27:20;;;;;;;;;;;;;;;2.53;86.88;100820.97;5117290;28;19931;-70
2020/12/19 03:29:46;;;;;;;;;;;;;;;2.34;87.33;100815.72;5096355;28;20018;-69
2020/12/19 03:32:12;;;;;;;;;;;;;;;2.28;88.12;100822.53;5114369;28;19959;-69
2020/12/19 03:34:39;;;;;;;;;;;;;;;2.20;88.23;100816.19;5114693;28;19977;-69
2020/12/19 03:37:05;;;;;;;;;;;;;;;2.42;87.94;100809.59;5078986;28;20480;-69
2020/12/19 03:39:31;;;;;;;;;;;;;;;2.46;87.66;100817.19;5079300;28;19928;-68
2020/12/19 03:41:57;;;;;;;;;;;;;;;2.40;87.66;100809.75;5063275;28;19970;-69
2020/12/19 03:44:23;;;;;;;;;;;;;;;2.48;87.72;100809.81;5098794;28;19962;-68
2020/12/19 03:46:50;;;;;;;;;;;;;;;2.41;88.04;100811.44;5103020;28;19915;-68
2020/12/19 03:49:16;;;;;;;;;;;;;;;2.54;87.53;100801.16;5109341;28;20022;-69
2020/12/19 03:51:43;;;;;;;;;;;;;;;2.52;87.38;100797.75;5062793;28;19969;-69
2020/12/19 03:54:09;;;;;;;;;;;;;;;2.63;87.13;100800.25;5079220;28;19955;-69
2020/12/19 03:56:35;;;;;;;;;;;;;;;2.48;86.96;100798.22;5062646;28;19924;-69
2020/12/19 03:59:01;;;;;;;;;;;;;;;2.39;87.38;100794.59;5095642;28;19928;-69
2020/12/19 04:01:27;;;;;;;;;;;;;;;2.26;87.43;100791.41;5079316;28;20503;-69
2020/12/19 04:03:53;;;;;;;;;;;;;;;2.28;87.86;100789.41;5095954;28;19924;-69
2020/12/19 04:06:20;;;;;;;;;;;;;;;2.25;87.68;100795.06;5079455;28;20018;-69
2020/12/19 04:08:46;;;;;;;;;;;;;;;2.18;87.37;100788.59;5079074;28;19962;-69
2020/12/19 04:11:12;;;;;;;;;;;;;;;2.16;88.20;100786.06;5098515;28;19924;-69
2020/12/19 04:13:38;;;;;;;;;;;;;;;2.18;88.17;100780.53;5073624;28;19927;-69
2020/12/19 04:16:05;;;;;;;;;;;;;;;2.26;88.52;100777.94;5061465;28;20001;-69
2020/12/19 04:18:31;;;;;;;;;;;;;;;2.27;87.96;100780.50;5095965;28;20019;-70
2020/12/19 04:20:57;;;;;;;;;;;;;;;2.26;88.42;100777.94;5078611;22;19968;-70
2020/12/19 04:23:23;;;;;;;;;;;;;;;2.31;87.94;100778.34;5046373;28;19952;-70
2020/12/19 04:25:49;;;;;;;;;;;;;;;2.48;87.94;100780.22;5034416;28;20383;-70
2020/12/19 04:28:16;;;;;;;;;;;;;;;2.44;87.88;100778.84;5052623;28;19947;-70
2020/12/19 04:30:42;;;;;;;;;;;;;;;2.25;88.21;100781.63;5050827;28;20391;-70
2020/12/19 04:33:08;;;;;;;;;;;;;;;2.16;88.31;100780.66;5034641;28;19925;-70
2020/12/19 04:35:34;;;;;;;;;;;;;;;2.04;88.46;100775.66;5050869;28;19952;-70
2020/12/19 04:38:00;;;;;;;;;;;;;;;2.08;88.61;100777.06;5017246;28;19924;-70
2020/12/19 04:40:27;;;;;;;;;;;;;;;1.99;88.59;100774.25;5050441;28;19968;-70
2020/12/19 04:42:53;;;;;;;;;;;;;;;1.87;88.88;100772.72;5050779;28;19925;-70
2020/12/19 04:45:20;;;;;;;;;;;;;;;1.72;89.56;100781.41;5034561;28;19924;-70
2020/12/19 04:47:46;;;;;;;;;;;;;;;1.81;89.45;100767.94;5034680;28;20011;-70
2020/12/19 04:50:13;;;;;;;;;;;;;;;1.78;89.11;100770.06;5050968;28;19933;-70
2020/12/19 04:52:39;;;;;;;;;;;;;;;1.72;89.55;100760.75;5034322;28;19925;-70
2020/12/19 04:55:06;;;;;;;;;;;;;;;1.73;89.39;100767.84;5033912;28;19940;-70
2020/12/19 04:57:32;;;;;;;;;;;;;;;1.75;89.94;100759.59;5001624;28;19956;-70
2020/12/19 04:59:58;;;;;;;;;;;;;;;1.72;89.82;100754.53;5034402;28;20039;-70
2020/12/19 05:02:24;;;;;;;;;;;;;;;1.83;89.97;100762.41;5033682;28;19925;-71
2020/12/19 05:04:51;;;;;;;;;;;;;;;1.87;89.55;100763.81;5051088;28;19946;-70
2020/12/19 05:07:30;;;;;;;;;;;;;;;2.00;89.19;100757.13;5035895;28;19928;-70
2020/12/19 05:09:57;;;;;;;;;;;;;;;1.95;89.22;100764.78;5034449;28;20023;-70
2020/12/19 05:12:23;;;;;;;;;;;;;;;2.00;88.92;100754.44;5050208;28;19944;-70
2020/12/19 05:14:49;;;;;;;;;;;;;;;2.06;88.59;100754.84;5034199;28;19929;-70
2020/12/19 05:17:16;;;;;;;;;;;;;;;1.99;88.09;100757.28;5053261;28;19925;-70
2020/12/19 05:19:42;;;;;;;;;;;;;;;2.01;89.01;100750.75;5067153;28;19928;-70
2020/12/19 05:22:09;;;;;;;;;;;;;;;2.06;88.51;100754.84;5050277;28;19985;-70
2020/12/19 05:24:35;;;;;;;;;;;;;;;2.00;88.57;100751.75;5032452;28;19925;-70
2020/12/19 05:27:02;;;;;;;;;;;;;;;1.95;88.94;100750.50;5013626;28;20031;-70
2020/12/19 05:29:28;;;;;;;;;;;;;;;1.89;88.41;100745.72;5048872;28;19929;-70
2020/12/19 05:31:55;;;;;;;;;;;;;;;1.85;88.71;100745.16;5017342;28;20394;-70
2020/12/19 05:34:21;;;;;;;;;;;;;;;1.82;88.76;100740.06;5049414;28;19960;-70
2020/12/19 05:36:48;;;;;;;;;;;;;;;1.88;88.81;100739.47;5013864;28;20292;-70
2020/12/19 05:39:15;;;;;;;;;;;;;;;1.80;88.71;100742.06;5046571;28;20307;-70
2020/12/19 05:41:42;;;;;;;;;;;;;;;1.72;89.07;100747.34;5051112;28;20369;-70
2020/12/19 05:44:08;;;;;;;;;;;;;;;1.78;88.89;100733.28;5048695;28;19931;-70
2020/12/19 05:46:36;;;;;;;;;;;;;;;1.63;88.79;100745.50;5048934;28;20382;-70
2020/12/19 05:49:03;;;;;;;;;;;;;;;1.57;89.01;100738.03;5046944;28;19925;-70
2020/12/19 05:51:30;;;;;;;;;;;;;;;1.49;88.98;100746.81;5048207;28;20141;-70
2020/12/19 05:54:02;;;;;;;;;;;;;;;1.50;89.02;100756.56;5047736;28;19929;-70
2020/12/19 05:56:28;;;;;;;;;;;;;;;1.42;88.81;100752.88;5047502;28;20233;-70
2020/12/19 05:58:54;;;;;;;;;;;;;;;1.31;89.03;100751.22;5031022;28;19931;-70
2020/12/19 06:01:21;;;;;;;;;;;;;;;1.21;89.61;100750.38;5049444;28;19925;-70
2020/12/19 06:03:48;;;;;;;;;;;;;;;1.23;88.65;100743.03;5032759;28;19982;-70
2020/12/19 06:06:15;;;;;;;;;;;;;;;1.16;89.35;100741.91;5016977;28;20039;-70
2020/12/19 06:08:41;;;;;;;;;;;;;;;1.15;89.50;100745.59;5050859;28;20391;-70
2020/12/19 06:11:09;;;;;;;;;;;;;;;1.02;89.25;100748.56;5033124;28;19932;-70
2020/12/19 06:13:37;;;;;;;;;;;;;;;1.00;89.68;100746.03;5034615;28;19929;-70
2020/12/19 06:16:10;;;;;;;;;;;;;;;0.87;89.61;100748.13;5056388;28;19924;-70
2020/12/19 06:18:48;;;;;;;;;;;;;;;0.93;89.63;100752.09;5056799;28;19924;-70
2020/12/19 06:21:15;;;;;;;;;;;;;;;0.72;89.99;100749.53;5051271;28;19928;-70
2020/12/19 06:23:41;;;;;;;;;;;;;;;0.63;89.77;100759.28;5033317;28;19964;-70
2020/12/19 06:26:08;;;;;;;;;;;;;;;0.50;90.96;100769.41;5016660;28;19947;-70
2020/12/19 06:28:40;;;;;;;;;;;;;;;0.43;91.13;100776.28;5033102;28;19951;-70
2020/12/19 06:31:07;;;;;;;;;;;;;;;0.35;92.16;100769.94;5033068;28;19964;-70
2020/12/19 06:33:34;;;;;;;;;;;;;;;0.32;92.04;100774.59;5049746;28;20197;-70
2020/12/19 06:36:02;;;;;;;;;;;;;;;0.38;92.29;100777.69;5032885;28;19965;-70
2020/12/19 06:38:38;;;;;;;;;;;;;;;0.50;92.91;100769.41;5033778;28;19925;-70
2020/12/19 06:41:05;;;;;;;;;;;;;;;0.65;92.59;100768.03;5032385;28;20314;-70
2020/12/19 06:43:31;;;;;;;;;;;;;;;0.65;92.67;100765.34;5049499;28;20358;-70
2020/12/19 06:45:57;;;;;;;;;;;;;;;1.02;91.69;100772.72;5050580;28;19925;-70
2020/12/19 06:48:30;;;;;;;;;;;;;;;0.92;91.64;100777.22;5049334;28;19928;-70
2020/12/19 06:50:57;;;;;;;;;;;;;;;0.90;90.72;100774.69;5016288;28;19925;-70
2020/12/19 06:53:25;;;;;;;;;;;;;;;0.97;90.53;100769.63;5047574;28;20019;-70
2020/12/19 06:55:51;;;;;;;;;;;;;;;0.92;90.88;100767.34;5048917;28;20032;-70
2020/12/19 06:58:35;;;;;;;;;;;;;;;0.89;90.94;100764.09;5064556;28;19925;-70
2020/12/19 07:01:21;;;;;;;;;;;;;;;1.04;90.80;100769.91;5049211;28;19924;-70
2020/12/19 07:03:48;;;;;;;;;;;;;;;0.89;91.06;100761.41;5052774;28;19928;-70
2020/12/19 07:06:14;;;;;;;;;;;;;;;0.95;90.27;100766.22;5069196;28;20391;-70
2020/12/19 07:08:51;;;;;;;;;;;;;;;1.01;89.76;100760.28;5052732;28;19924;-70
2020/12/19 07:11:34;;;;;;;;;;;;;;;1.03;89.70;100762.84;5036480;28;19925;-70
2020/12/19 07:14:00;;;;;;;;;;;;;;;1.08;89.37;100772.13;5052663;28;19924;-70
2020/12/19 07:16:42;;;;;;;;;;;;;;;1.13;89.79;100769.03;5052441;28;20016;-70
2020/12/19 07:19:20;;;;;;;;;;;;;;;1.29;89.02;100769.31;5035768;28;20007;-70
2020/12/19 07:21:47;;;;;;;;;;;;;;;1.54;87.70;100767.84;5052627;28;19947;-70
2020/12/19 07:24:13;;;;;;;;;;;;;;;1.83;86.76;100765.94;5035992;28;19951;-70
2020/12/19 07:26:39;;;;;;;;;;;;;;;2.33;84.42;100766.47;5035909;28;19929;-70
2020/12/19 07:29:15;;;;;;;;;;;;;;;2.54;82.82;100759.97;5052970;28;20418;-70
2020/12/19 07:31:46;;;;;;;;;;;;;;;3.12;79.91;100752.28;5052716;28;19925;-70
2020/12/19 07:34:13;;;;;;;;;;;;;;;3.47;77.83;100750.56;5036225;28;20039;-70
2020/12/19 07:36:41;;;;;;;;;;;;;;;3.99;76.50;100746.88;5052412;28;19979;-70
2020/12/19 07:39:07;;;;;;;;;;;;;;;4.67;74.39;100746.78;5053450;28;20188;-70
2020/12/19 07:41:33;;;;;;;;;;;;;;;5.06;71.58;100743.50;5053539;28;19924;-70
2020/12/19 07:44:07;;;;;;;;;;;;;;;5.37;70.09;100749.06;5035973;28;19924;-70
2020/12/19 07:46:33;;;;;;;;;;;;;;;5.57;70.00;100750.41;5052046;28;19925;-70
2020/12/19 07:48:59;;;;;;;;;;;;;;;6.27;67.43;100744.34;5052087;28;20327;-70
2020/12/19 07:51:26;;;;;;;;;;;;;;;6.53;66.00;100754.91;5035422;28;19932;-71
2020/12/19 07:53:52;;;;;;;;;;;;;;;7.34;63.44;100744.38;5051929;28;19929;-71
2020/12/19 07:56:18;;;;;;;;;;;;;;;7.61;61.32;100740.25;5033571;28;19936;-71
2020/12/19 07:58:44;;;;;;;;;;;;;;;7.67;61.95;100735.94;5068253;28;19928;-71
2020/12/19 08:01:10;;;;;;;;;;;;;;;8.45;58.57;100730.00;5051220;28;20386;-71
2020/12/19 08:03:37;;;;;;;;;;;;;;;8.67;57.22;100729.00;5039017;28;20325;-71
2020/12/19 08:06:03;;;;;;;;;;;;;;;8.30;58.52;100731.88;5066931;28;20011;-71
2020/12/19 08:08:29;;;;;;;;;;;;;;;8.65;57.75;100720.22;5023749;28;19928;-71
2020/12/19 08:11:04;;;;;;;;;;;;;;;9.22;55.55;100716.63;5052256;28;19929;-71
2020/12/19 08:13:30;;;;;;;;;;;;;;;9.67;55.05;100726.25;5034906;28;20335;-71
2020/12/19 08:15:57;;;;;;;;;;;;;;;9.94;52.89;100716.38;5035567;28;19924;-71
2020/12/19 08:18:23;;;;;;;;;;;;;;;9.66;53.76;100715.56;5051616;28;19925;-71
2020/12/19 08:20:49;;;;;;;;;;;;;;;9.89;53.17;100718.84;5051218;28;19976;-71
2020/12/19 08:23:15;;;;;;;;;;;;;;;10.05;52.74;100717.69;5050739;28;20028;-71
2020/12/19 08:25:42;;;;;;;;;;;;;;;10.25;52.30;100721.41;5051483;28;19998;-71
2020/12/19 08:28:18;;;;;;;;;;;;;;;10.25;52.23;100713.22;5034944;28;19970;-71
2020/12/19 08:30:44;;;;;;;;;;;;;;;10.75;50.61;100709.22;5052494;28;20239;-71
2020/12/19 08:33:12;;;;;;;;;;;;;;;11.19;49.29;100707.88;5052525;28;20311;-71
2020/12/19 08:35:42;;;;;;;;;;;;;;;11.52;48.67;100705.16;5052119;28;19924;-71
2020/12/19 08:38:08;;;;;;;;;;;;;;;11.58;48.29;100707.03;5050844;28;19932;-71
2020/12/19 08:40:35;;;;;;;;;;;;;;;11.52;48.62;100713.34;5051230;28;19929;-71
2020/12/19 08:43:02;;;;;;;;;;;;;;;11.80;47.48;100717.75;5050923;28;20442;-72
2020/12/19 08:45:29;;;;;;;;;;;;;;;11.71;47.23;100714.41;5051156;28;19932;-72
2020/12/19 08:47:56;;;;;;;;;;;;;;;11.86;47.08;100701.38;5050636;28;20390;-71
2020/12/19 08:50:26;;;;;;;;;;;;;;;11.95;46.79;100713.75;5051992;28;20293;-70
2020/12/19 08:53:02;;;;;;;;;;;;;;;11.70;47.03;100712.72;5051186;28;19932;-70
2020/12/19 08:55:29;;;;;;;;;;;;;;;11.93;46.94;100707.66;5052310;28;19964;-70
2020/12/19 08:57:55;;;;;;;;;;;;;;;12.18;46.29;100706.97;5050706;28;20310;-70
2020/12/19 09:00:21;;;;;;;;;;;;;;;11.85;47.14;100707.03;5034520;28;19925;-69
2020/12/19 09:02:48;;;;;;;;;;;;;;;12.11;46.23;100725.31;5050569;28;19925;-70
2020/12/19 09:05:15;;;;;;;;;;;;;;;13.15;44.30;100734.09;5051389;28;19928;-70
2020/12/19 09:07:41;;;;;;;;;;;;;;;12.93;43.94;100732.75;5034894;28;19960;-70
2020/12/19 09:10:23;;;;;;;;;;;;;;;12.13;45.86;100734.13;5034404;28;19925;-70
2020/12/19 09:13:08;;;;;;;;;;;;;;;12.79;44.55;100736.63;5034310;28;20016;-70
2020/12/19 09:15:35;;;;;;;;;;;;;;;12.82;44.51;100733.47;5051512;28;19940;-70
2020/12/19 09:18:11;;;;;;;;;;;;;;;13.59;43.45;100735.91;5033510;28;19931;-70
2020/12/19 09:20:37;;;;;;;;;;;;;;;13.32;43.17;100738.00;5044023;28;19930;-70
2020/12/19 09:23:06;;;;;;;;;;;;;;;13.67;42.40;100737.53;5051296;28;19925;-71
2020/12/19 09:25:33;;;;;;;;;;;;;;;14.00;42.08;100735.34;5050062;28;19925;-70
2020/12/19 09:27:59;;;;;;;;;;;;;;;14.36;40.91;100725.47;5017583;28;19928;-70
2020/12/19 09:30:25;;;;;;;;;;;;;;;14.71;39.82;100723.81;5050489;28;19998;-71
2020/12/19 09:32:51;;;;;;;;;;;;;;;14.68;39.87;100724.25;5050373;28;19925;-70
2020/12/19 09:35:18;;;;;;;;;;;;;;;14.69;39.51;100720.44;5017311;28;19925;-71
2020/12/19 09:37:47;;;;;;;;;;;;;;;14.44;40.57;100725.19;5033920;28;20126;-70
2020/12/19 09:40:26;;;;;;;;;;;;;;;14.62;39.95;100743.53;5035376;28;19933;-70
2020/12/19 09:42:52;;;;;;;;;;;;;;;14.39;40.43;100747.78;5049754;28;20405;-70
2020/12/19 09:45:18;;;;;;;;;;;;;;;14.75;39.62;100738.75;5017165;28;19931;-70
2020/12/19 09:47:46;;;;;;;;;;;;;;;15.30;39.14;100727.59;5017680;28;19925;-70
2020/12/19 09:50:13;;;;;;;;;;;;;;;15.02;39.23;100728.25;5035870;28;19925;-70
2020/12/19 09:52:39;;;;;;;;;;;;;;;14.74;39.84;100731.56;5044114;28;20186;-71
2020/12/19 09:55:06;;;;;;;;;;;;;;;15.00;39.20;100710.31;5029899;28;19987;-71
2020/12/19 09:57:32;;;;;;;;;;;;;;;14.81;39.95;100708.69;5041673;28;19931;-70
2020/12/19 09:59:58;;;;;;;;;;;;;;;14.72;39.95;100702.69;5066649;28;20027;-70
2020/12/19 10:02:24;;;;;;;;;;;;;;;14.05;41.92;100708.09;5049576;28;19964;-70
2020/12/19 10:04:51;;;;;;;;;;;;;;;14.96;39.70;100701.72;5033915;28;19925;-70
2020/12/19 10:07:17;;;;;;;;;;;;;;;15.43;39.05;100705.44;5033830;28;19925;-70
2020/12/19 10:09:43;;;;;;;;;;;;;;;16.61;36.51;100701.59;5049784;28;19935;-71
2020/12/19 10:12:09;;;;;;;;;;;;;;;16.42;36.62;100702.81;5049945;28;20339;-71
2020/12/19 10:14:35;;;;;;;;;;;;;;;15.80;37.59;100698.94;5050666;28;19925;-71
2020/12/19 10:17:02;;;;;;;;;;;;;;;15.66;38.19;100704.66;5049283;28;19925;-70
2020/12/19 10:19:28;;;;;;;;;;;;;;;16.02;37.33;100708.25;5033208;28;20016;-70
2020/12/19 10:21:54;;;;;;;;;;;;;;;16.66;36.56;100701.72;5083707;22;19929;-75
2020/12/19 10:24:20;;;;;;;;;;;;;;;15.54;38.02;100705.72;5029095;28;20309;-75
2020/12/19 10:26:47;;;;;;;;;;;;;;;15.03;39.38;100704.38;5049639;28;19947;-74
2020/12/19 10:29:13;;;;;;;;;;;;;;;13.81;41.82;100710.88;5049322;28;20473;-75
2020/12/19 10:31:40;;;;;;;;;;;;;;;11.49;48.00;100715.63;5016439;28;19929;-75
2020/12/19 10:34:06;;;;;;;;;;;;;;;10.31;52.29;100722.47;5049243;28;20394;-75
2020/12/19 10:36:32;;;;;;;;;;;;;;;11.18;49.91;100717.09;5050427;28;19925;-74
2020/12/19 10:38:59;;;;;;;;;;;;;;;11.98;48.00;100710.59;5051526;28;19968;-74
2020/12/19 10:41:25;;;;;;;;;;;;;;;12.49;46.09;100708.97;5027173;28;20020;-74
2020/12/19 10:43:51;;;;;;;;;;;;;;;12.22;47.35;100708.22;5016934;28;19926;-74
2020/12/19 10:46:23;;;;;;;;;;;;;;;13.41;44.35;100709.31;5051858;28;20310;-75
2020/12/19 10:48:50;;;;;;;;;;;;;;;14.99;40.53;100703.16;5036914;28;19928;-75
2020/12/19 10:51:16;;;;;;;;;;;;;;;15.62;39.19;100697.97;5039259;28;20271;-74
2020/12/19 10:53:42;;;;;;;;;;;;;;;16.57;37.21;100697.66;5057011;28;19931;-74
2020/12/19 10:56:18;;;;;;;;;;;;;;;16.23;37.75;100688.41;5053155;28;20020;-74
2020/12/19 10:58:44;;;;;;;;;;;;;;;15.86;38.48;100687.84;5054006;28;19925;-73
2020/12/19 11:01:11;;;;;;;;;;;;;;;16.75;37.01;100686.50;5036293;28;19932;-74
2020/12/19 11:03:37;;;;;;;;;;;;;;;16.74;37.36;100672.97;5052972;28;19925;-75
2020/12/19 11:06:03;;;;;;;;;;;;;;;16.85;36.50;100668.50;5053938;28;20028;-74
2020/12/19 11:08:29;;;;;;;;;;;;;;;17.35;35.75;100674.91;5032866;28;19929;-75
2020/12/19 11:10:55;;;;;;;;;;;;;;;17.21;35.36;100673.59;5026355;28;19999;-74
2020/12/19 11:13:22;;;;;;;;;;;;;;;17.11;35.74;100670.63;5040042;28;19932;-74
2020/12/19 11:15:48;;;;;;;;;;;;;;;16.00;37.38;100667.25;5054455;28;19986;-74
2020/12/19 11:18:14;;;;;;;;;;;;;;;15.81;38.00;100671.22;5052462;28;19928;-74
2020/12/19 11:20:40;;;;;;;;;;;;;;;15.70;38.60;100667.38;5052251;28;19924;-74
2020/12/19 11:23:06;;;;;;;;;;;;;;;17.10;35.73;100660.69;5053042;28;19931;-74
2020/12/19 11:25:32;;;;;;;;;;;;;;;16.57;36.50;100661.88;5049374;28;19931;-74
2020/12/19 11:27:59;;;;;;;;;;;;;;;16.50;36.47;100652.09;5052258;28;19932;-74
2020/12/19 11:30:25;;;;;;;;;;;;;;;16.49;36.70;100661.44;5035665;28;19940;-74
2020/12/19 11:32:53;;;;;;;;;;;;;;;13.80;42.42;100658.00;5052508;28;20306;-74
2020/12/19 11:35:19;;;;;;;;;;;;;;;13.16;44.51;100656.47;5035894;28;19944;-74
2020/12/19 11:37:46;;;;;;;;;;;;;;;13.11;45.39;100647.19;5053347;28;19975;-74
2020/12/19 11:40:12;;;;;;;;;;;;;;;12.50;47.26;100653.25;5052564;28;19924;-75
2020/12/19 11:42:38;;;;;;;;;;;;;;;11.64;49.59;100654.34;5052551;28;19924;-74
2020/12/19 11:45:05;;;;;;;;;;;;;;;11.06;50.96;100647.84;5035811;28;19979;-74
2020/12/19 11:47:31;;;;;;;;;;;;;;;10.48;52.83;100644.78;5052653;28;20417;-74
2020/12/19 11:49:57;;;;;;;;;;;;;;;10.61;52.53;100652.19;5053421;28;19925;-74
2020/12/19 11:52:23;;;;;;;;;;;;;;;10.44;53.08;100651.69;5051663;28;19931;-74
2020/12/19 11:54:49;;;;;;;;;;;;;;;10.38;53.70;100663.44;5053116;28;19929;-74
2020/12/19 11:57:15;;;;;;;;;;;;;;;10.24;54.60;100650.78;5051543;28;19929;-74
2020/12/19 11:59:42;;;;;;;;;;;;;;;10.31;54.84;100647.06;5035765;28;19947;-74
2020/12/19 12:02:08;;;;;;;;;;;;;;;10.37;54.21;100654.41;5035218;28;20392;-75
2020/12/19 12:04:34;;;;;;;;;;;;;;;10.37;54.10;100650.84;5037932;28;19967;-74
2020/12/19 12:07:00;;;;;;;;;;;;;;;10.22;54.46;100652.88;5021607;28;19924;-74
2020/12/19 12:09:27;;;;;;;;;;;;;;;10.33;53.84;100652.28;5051785;28;19971;-75
2020/12/19 12:11:53;;;;;;;;;;;;;;;10.54;53.81;100641.25;5051425;28;19948;-74
2020/12/19 12:14:19;;;;;;;;;;;;;;;10.92;52.83;100641.53;5052980;28;20019;-73
2020/12/19 12:16:45;;;;;;;;;;;;;;;13.25;47.04;100646.88;5034810;28;19960;-74
2020/12/19 12:19:12;;;;;;;;;;;;;;;14.79;42.17;100631.28;5051971;28;19924;-74
2020/12/19 12:21:38;;;;;;;;;;;;;;;13.98;44.42;100644.28;5052911;28;19925;-75
2020/12/19 12:24:05;;;;;;;;;;;;;;;15.09;41.78;100632.06;5053585;28;20365;-75
2020/12/19 12:26:31;;;;;;;;;;;;;;;16.21;39.10;100618.22;5026379;28;20436;-75
2020/12/19 12:28:58;;;;;;;;;;;;;;;16.42;39.04;100623.03;5046264;28;19932;-75
2020/12/19 12:31:25;;;;;;;;;;;;;;;16.18;38.65;100614.03;5030539;28;20411;-75
2020/12/19 12:33:51;;;;;;;;;;;;;;;15.97;39.09;100621.00;5049929;28;19924;-74
2020/12/19 12:36:18;;;;;;;;;;;;;;;16.28;38.40;100618.94;5049194;28;19925;-74
2020/12/19 12:38:44;;;;;;;;;;;;;;;15.09;41.19;100626.56;5051486;28;20394;-74
2020/12/19 12:41:11;;;;;;;;;;;;;;;14.61;42.09;100627.50;5050878;28;20008;-75
2020/12/19 12:43:37;;;;;;;;;;;;;;;15.47;40.96;100623.41;5018004;28;19970;-75